Time;durP1;ratioP1;P1;durP2;ratioP2;P2;SDS_P1;SDS_P2;PMS_P1;PMS_P2;Temp;Humidity;BMP_temperature;BMP_pressure;BME280_temperature;BME280_humidity;BME280_pressure;Samples;Min_cycle;Max_cycle;Signal;HPM_P1;HPM_P2
2022/10/21 00:01:11;;;;;;;13.37;9.70;;;;;;;10.32;97.03;101321.88;4951432;28;20216;-78
2022/10/21 00:03:37;;;;;;;13.43;10.13;;;;;;;10.31;97.30;101315.03;4947912;28;20232;-75
2022/10/21 00:06:02;;;;;;;14.93;10.13;;;;;;;10.29;97.21;101315.81;4950345;28;20228;-76
2022/10/21 00:08:28;;;;;;;14.00;9.83;;;;;;;10.32;97.37;101321.03;4945845;28;20201;-76
2022/10/21 00:10:56;;;;;;;12.77;9.53;;;;;;;10.30;97.44;101309.88;4947580;28;20302;-75
2022/10/21 00:13:22;;;;;;;12.00;8.97;;;;;;;10.28;97.00;101309.81;4942809;29;20194;-76
2022/10/21 00:16:00;;;;;;;11.87;9.80;;;;;;;10.29;97.41;101301.34;4930397;29;20662;-77
2022/10/21 00:18:26;;;;;;;14.63;10.60;;;;;;;10.28;97.30;101293.59;4946351;29;20333;-76
2022/10/21 00:20:51;;;;;;;14.43;9.63;;;;;;;10.26;97.65;101287.56;4941973;29;20229;-77
2022/10/21 00:23:17;;;;;;;12.07;8.87;;;;;;;10.29;97.84;101303.00;4947515;28;20190;-78
2022/10/21 00:25:42;;;;;;;11.87;9.83;;;;;;;10.27;97.91;101302.97;4944651;28;20547;-78
2022/10/21 00:28:08;;;;;;;10.93;9.33;;;;;;;10.27;97.46;101295.28;4951593;28;20189;-78
2022/10/21 00:30:33;;;;;;;11.67;9.47;;;;;;;10.26;98.07;101287.56;4950954;28;20221;-79
2022/10/21 00:32:58;;;;;;;11.73;9.27;;;;;;;10.25;97.84;101288.41;4947179;28;20201;-79
2022/10/21 00:35:24;;;;;;;12.30;9.77;;;;;;;10.24;98.12;101295.22;4949912;28;20197;-78
2022/10/21 00:37:49;;;;;;;12.77;9.43;;;;;;;10.24;98.22;101282.44;4952596;28;20209;-78
2022/10/21 00:40:15;;;;;;;14.07;10.17;;;;;;;10.23;97.72;101279.81;4945699;28;20217;-79
2022/10/21 00:42:41;;;;;;;11.57;9.30;;;;;;;10.22;97.84;101280.63;4950154;29;20193;-79
2022/10/21 00:45:06;;;;;;;11.97;10.03;;;;;;;10.19;98.15;101278.84;4946084;28;20199;-76
2022/10/21 00:47:45;;;;;;;10.60;9.50;;;;;;;10.19;98.64;101268.59;4943810;28;20224;-78
2022/10/21 00:50:23;;;;;;;13.00;10.77;;;;;;;10.22;98.48;101265.28;4945220;28;20229;-78
2022/10/21 00:52:49;;;;;;;14.90;10.37;;;;;;;10.21;98.24;101264.41;4944239;29;20192;-78
2022/10/21 00:55:15;;;;;;;14.80;10.50;;;;;;;10.21;98.70;101260.97;4943695;28;20765;-77
2022/10/21 00:57:41;;;;;;;13.07;10.33;;;;;;;10.20;98.72;101255.00;4950474;28;20197;-77
2022/10/21 01:00:06;;;;;;;12.30;10.00;;;;;;;10.18;98.37;101248.13;4948150;28;20705;-79
2022/10/21 01:02:32;;;;;;;12.00;9.80;;;;;;;10.18;98.48;101243.84;4950195;29;20197;-78
2022/10/21 01:05:01;;;;;;;11.90;9.90;;;;;;;10.18;98.47;101240.44;4949802;28;20279;-77
2022/10/21 01:07:27;;;;;;;13.20;10.63;;;;;;;10.21;98.62;101235.38;4949038;28;20229;-79
2022/10/21 01:09:52;;;;;;;12.87;10.70;;;;;;;10.22;98.65;101226.88;4952306;28;20319;-78
2022/10/21 01:12:46;;;;;;;14.43;10.47;;;;;;;10.28;98.82;101233.03;4950229;28;20197;-79
2022/10/21 01:15:34;;;;;;;11.50;9.73;;;;;;;10.29;98.60;101232.22;4947785;29;20193;-79
2022/10/21 01:18:18;;;;;;;12.00;10.07;;;;;;;10.31;98.39;101230.56;4951766;28;20205;-77
2022/10/21 01:20:52;;;;;;;13.63;10.33;;;;;;;10.34;98.62;101210.19;4949914;29;20216;-78
2022/10/21 01:23:39;;;;;;;15.30;10.53;;;;;;;10.36;98.61;101212.75;4948429;28;20193;-78
2022/10/21 01:26:24;;;;;;;15.10;9.90;;;;;;;10.36;98.71;101207.63;4929010;29;20549;-77
2022/10/21 01:29:20;;;;;;;16.30;9.90;;;;;;;10.36;98.90;101199.94;4952879;28;20253;-78
2022/10/21 01:31:53;;;;;;;13.60;10.73;;;;;;;10.38;99.19;101198.31;4949027;29;20218;-76
2022/10/21 01:34:43;;;;;;;14.13;10.43;;;;;;;10.37;99.37;101194.88;4952639;29;20208;-77
2022/10/21 01:37:46;;;;;;;16.33;11.03;;;;;;;10.39;99.49;101194.94;4943853;28;20721;-77
2022/10/21 01:40:48;;;;;;;14.67;11.23;;;;;;;10.37;99.38;101183.78;4948428;29;20461;-77
2022/10/21 01:43:16;;;;;;;13.50;11.03;;;;;;;10.32;99.47;101188.78;4944261;29;20204;-78
2022/10/21 01:45:53;;;;;;;17.80;10.93;;;;;;;10.31;99.88;101189.63;4956966;28;20201;-78
2022/10/21 01:48:27;;;;;;;16.00;11.27;;;;;;;10.29;99.82;101186.16;4954721;28;20209;-78
2022/10/21 01:50:57;;;;;;;12.17;10.87;;;;;;;10.26;99.55;101185.19;4945049;28;20229;-78
2022/10/21 01:53:28;;;;;;;14.13;11.13;;;;;;;10.26;99.77;101178.41;4949603;29;20206;-78
2022/10/21 01:55:56;;;;;;;14.23;11.07;;;;;;;10.26;100.00;101185.19;4952611;29;20202;-78
2022/10/21 01:58:25;;;;;;;13.77;11.07;;;;;;;10.24;99.42;101184.31;4948933;29;20190;-78
2022/10/21 02:00:55;;;;;;;13.90;11.13;;;;;;;10.19;99.81;101178.19;4953815;28;20209;-76
2022/10/21 02:03:30;;;;;;;14.47;11.30;;;;;;;10.21;99.38;101179.09;4953983;28;20204;-78
2022/10/21 02:05:55;;;;;;;13.40;10.60;;;;;;;10.18;100.00;101173.91;4953157;29;20208;-78
2022/10/21 02:08:21;;;;;;;16.93;12.60;;;;;;;10.15;100.00;101169.59;4953471;28;20205;-78
2022/10/21 02:10:50;;;;;;;14.43;11.50;;;;;;;10.16;99.43;101166.19;4950003;28;20245;-78
2022/10/21 02:13:23;;;;;;;15.87;11.27;;;;;;;10.14;99.58;101165.28;4945937;29;20212;-77
2022/10/21 02:15:53;;;;;;;16.33;11.40;;;;;;;10.15;99.78;101154.22;4949101;29;20186;-78
2022/10/21 02:18:24;;;;;;;13.20;11.23;;;;;;;10.16;99.64;101148.28;4954697;28;20193;-78
2022/10/21 02:21:05;;;;;;;15.43;11.20;;;;;;;10.15;99.05;101148.25;4956246;28;20221;-78
2022/10/21 02:23:52;;;;;;;15.67;11.07;;;;;;;10.12;99.89;101135.34;4955386;29;20189;-78
2022/10/21 02:26:18;;;;;;;15.47;11.90;;;;;;;10.13;99.74;101134.56;4966491;28;20198;-78
2022/10/21 02:28:43;;;;;;;14.37;10.83;;;;;;;10.13;99.34;101140.50;4957321;29;20181;-79
2022/10/21 02:31:25;;;;;;;16.83;11.90;;;;;;;10.16;99.99;101137.16;4957299;28;20221;-77
2022/10/21 02:33:58;;;;;;;13.60;11.20;;;;;;;10.16;100.00;101130.38;4965550;28;20197;-77
2022/10/21 02:36:54;;;;;;;15.60;12.43;;;;;;;10.16;99.63;101132.06;4953896;28;20197;-77
2022/10/21 02:39:46;;;;;;;16.57;11.70;;;;;;;10.14;99.85;101128.59;4949742;29;20757;-78
2022/10/21 02:42:18;;;;;;;13.83;10.90;;;;;;;10.14;99.44;101134.56;4952687;29;20191;-78
2022/10/21 02:44:44;;;;;;;17.20;11.67;;;;;;;10.17;99.50;101137.22;4952068;29;20268;-78
2022/10/21 02:47:10;;;;;;;15.53;11.87;;;;;;;10.16;99.39;101125.25;4954228;28;20220;-76
2022/10/21 02:49:35;;;;;;;15.67;11.57;;;;;;;10.15;99.90;101122.66;4951500;28;20213;-77
2022/10/21 02:52:00;;;;;;;13.93;12.03;;;;;;;10.16;100.00;101134.59;4952291;28;20197;-76
2022/10/21 02:54:26;;;;;;;16.33;12.17;;;;;;;10.15;99.99;101118.41;4950554;28;20896;-78
2022/10/21 02:56:51;;;;;;;14.97;11.30;;;;;;;10.14;100.00;101118.38;4943469;28;20194;-77
2022/10/21 02:59:17;;;;;;;16.20;12.03;;;;;;;10.12;100.00;101117.44;4949977;28;20217;-76
2022/10/21 03:01:42;;;;;;;16.33;12.27;;;;;;;10.15;99.72;101113.28;4948161;28;20801;-80
2022/10/21 03:04:07;;;;;;;14.87;12.50;;;;;;;10.13;99.93;101114.09;4945555;28;20306;-77
2022/10/21 03:06:33;;;;;;;17.70;12.40;;;;;;;10.13;100.00;101117.50;4951160;29;20181;-80
2022/10/21 03:08:59;;;;;;;17.00;13.13;;;;;;;10.12;100.00;101113.19;4948053;28;20786;-78
2022/10/21 03:11:24;;;;;;;15.97;12.50;;;;;;;10.10;100.00;101114.84;4943713;28;20320;-77
2022/10/21 03:13:50;;;;;;;15.70;11.20;;;;;;;10.12;100.00;101112.31;4948946;29;20196;-78
2022/10/21 03:16:15;;;;;;;16.17;12.63;;;;;;;10.11;100.00;101119.16;4954105;28;20181;-78
2022/10/21 03:18:41;;;;;;;16.83;12.07;;;;;;;10.09;100.00;101109.72;4948241;28;20561;-78
2022/10/21 03:21:06;;;;;;;14.67;12.77;;;;;;;10.07;100.00;101122.47;4946819;28;20268;-79
2022/10/21 03:23:31;;;;;;;15.43;12.63;;;;;;;10.06;100.00;101123.28;4945880;29;20289;-79
2022/10/21 03:25:57;;;;;;;16.43;12.10;;;;;;;10.08;100.00;101124.19;4945685;29;20280;-78
2022/10/21 03:28:22;;;;;;;17.43;13.27;;;;;;;10.05;100.00;101116.41;4941743;29;20247;-76
2022/10/21 03:30:48;;;;;;;20.20;12.43;;;;;;;10.06;100.00;101114.75;4942892;28;20311;-79
2022/10/21 03:33:13;;;;;;;15.83;12.60;;;;;;;10.03;100.00;101100.16;4951600;28;20189;-78
2022/10/21 03:35:38;;;;;;;17.73;13.27;;;;;;;10.00;100.00;101100.06;4948219;28;20624;-78
2022/10/21 03:38:04;;;;;;;18.77;13.30;;;;;;;10.01;100.00;101099.25;4951902;28;20823;-79
2022/10/21 03:40:29;;;;;;;19.87;13.53;;;;;;;9.98;100.00;101090.59;4950627;28;20208;-79
2022/10/21 03:42:56;;;;;;;19.00;14.17;;;;;;;10.01;100.00;101088.16;4953171;28;20782;-76
2022/10/21 03:45:21;;;;;;;18.90;13.50;;;;;;;10.00;100.00;101071.06;4954644;28;20280;-77
2022/10/21 03:47:47;;;;;;;17.27;14.33;;;;;;;9.96;100.00;101069.25;4959835;28;20301;-74
2022/10/21 03:50:12;;;;;;;18.10;14.67;;;;;;;9.97;100.00;101078.66;4951988;28;20231;-77
2022/10/21 03:52:38;;;;;;;18.77;13.73;;;;;;;9.94;100.00;101084.56;4951709;29;20189;-76
2022/10/21 03:55:03;;;;;;;19.00;13.87;;;;;;;9.89;100.00;101077.59;4955101;28;20650;-77
2022/10/21 03:57:29;;;;;;;20.10;14.10;;;;;;;9.88;100.00;101069.06;4958363;28;20188;-75
2022/10/21 03:59:54;;;;;;;19.93;14.20;;;;;;;9.88;100.00;101063.94;4953700;28;20690;-78
2022/10/21 04:02:20;;;;;;;19.37;14.13;;;;;;;9.85;100.00;101051.06;4956089;28;20717;-78
2022/10/21 04:04:45;;;;;;;18.87;13.57;;;;;;;9.87;100.00;101051.97;4954156;28;20198;-77
2022/10/21 04:07:10;;;;;;;22.00;14.20;;;;;;;9.84;100.00;101056.16;4956879;28;20192;-77
2022/10/21 04:09:36;;;;;;;20.37;14.20;;;;;;;9.83;100.00;101060.41;4951371;29;20632;-79
2022/10/21 04:12:01;;;;;;;18.83;13.97;;;;;;;9.85;100.00;101057.88;4955390;28;20295;-79
2022/10/21 04:14:27;;;;;;;20.00;14.27;;;;;;;9.83;100.00;101041.63;4959051;28;20193;-78
2022/10/21 04:16:52;;;;;;;19.67;14.03;;;;;;;9.82;100.00;101043.31;4957811;29;20192;-78
2022/10/21 04:19:19;;;;;;;18.97;14.40;;;;;;;9.80;100.00;101036.44;4955369;28;20193;-78
2022/10/21 04:21:45;;;;;;;17.73;13.97;;;;;;;9.79;100.00;101037.25;4958604;28;20210;-79
2022/10/21 04:24:10;;;;;;;20.37;14.10;;;;;;;9.78;100.00;101043.22;4957791;28;20654;-78
2022/10/21 04:26:36;;;;;;;18.27;14.00;;;;;;;9.79;100.00;101034.72;4959812;28;20220;-78
2022/10/21 04:29:01;;;;;;;24.67;13.97;;;;;;;9.79;100.00;101030.47;4954582;29;20204;-78
2022/10/21 04:31:27;;;;;;;16.83;13.67;;;;;;;9.73;100.00;101040.53;4951684;28;20228;-78
2022/10/21 04:33:52;;;;;;;18.13;14.20;;;;;;;9.69;100.00;101043.84;4953774;29;20283;-76
2022/10/21 04:36:17;;;;;;;19.57;13.73;;;;;;;9.65;100.00;101042.03;4957158;28;20252;-79
2022/10/21 04:38:43;;;;;;;17.33;13.43;;;;;;;9.64;100.00;101031.75;4952020;28;20201;-78
2022/10/21 04:41:08;;;;;;;20.30;14.17;;;;;;;9.64;100.00;101032.59;4956850;28;20212;-76
2022/10/21 04:43:36;;;;;;;18.30;14.50;;;;;;;9.63;100.00;101022.38;4954345;28;20193;-77
2022/10/21 04:46:01;;;;;;;18.17;14.23;;;;;;;9.63;100.00;101022.38;4956853;28;20576;-78
2022/10/21 04:48:26;;;;;;;18.67;14.57;;;;;;;9.60;100.00;101019.72;4941693;29;20197;-79
2022/10/21 04:50:53;;;;;;;19.57;14.97;;;;;;;9.55;100.00;101027.28;4953291;29;20317;-79
2022/10/21 04:53:19;;;;;;;20.03;15.57;;;;;;;9.58;100.00;101021.41;4955432;28;20199;-78
2022/10/21 04:55:44;;;;;;;21.47;15.80;;;;;;;9.56;100.00;101018.78;4954702;28;20189;-78
2022/10/21 04:58:09;;;;;;;21.37;15.57;;;;;;;9.54;100.00;101025.53;4942888;28;20518;-75
2022/10/21 05:00:35;;;;;;;18.47;14.40;;;;;;;9.53;100.00;101021.25;4944867;29;20748;-80
2022/10/21 05:03:00;;;;;;;19.60;13.83;;;;;;;9.54;100.00;101024.69;4947893;29;20826;-79
2022/10/21 05:05:26;;;;;;;20.67;14.93;;;;;;;9.49;100.00;101016.88;4948724;28;20569;-78
2022/10/21 05:07:51;;;;;;;19.57;14.13;;;;;;;9.46;100.00;101013.38;4952377;28;20240;-79
2022/10/21 05:10:17;;;;;;;22.33;14.43;;;;;;;9.51;100.00;101007.59;4948281;28;20315;-79
2022/10/21 05:12:42;;;;;;;21.50;14.57;;;;;;;9.49;100.00;101016.88;4949774;29;20190;-78
2022/10/21 05:15:08;;;;;;;22.03;15.33;;;;;;;9.44;100.00;101015.06;4950308;28;20328;-78
2022/10/21 05:17:35;;;;;;;19.70;15.13;;;;;;;9.42;100.00;101016.69;4946693;28;20676;-78
2022/10/21 05:20:02;;;;;;;20.77;14.60;;;;;;;9.44;100.00;101015.06;4950330;28;20338;-78
2022/10/21 05:22:28;;;;;;;19.33;14.07;;;;;;;9.45;100.00;101009.09;4948988;28;20197;-78
2022/10/21 05:24:53;;;;;;;18.87;15.03;;;;;;;9.42;100.00;101012.44;4954020;28;20193;-78
2022/10/21 05:27:18;;;;;;;18.97;14.53;;;;;;;9.42;100.00;101009.00;4958357;28;20208;-77
2022/10/21 05:29:44;;;;;;;19.83;14.07;;;;;;;9.41;100.00;101004.75;4963492;28;20273;-78
2022/10/21 05:32:09;;;;;;;18.23;13.90;;;;;;;9.36;100.00;101009.72;4963689;28;20221;-77
2022/10/21 05:34:35;;;;;;;18.00;13.40;;;;;;;9.33;100.00;101014.75;4953897;28;20204;-78
2022/10/21 05:37:00;;;;;;;17.10;13.30;;;;;;;9.27;100.00;101014.56;4957245;29;20199;-77
2022/10/21 05:39:25;;;;;;;16.77;13.77;;;;;;;9.35;100.00;101010.53;4956222;28;20197;-77
2022/10/21 05:41:51;;;;;;;20.23;14.60;;;;;;;9.38;100.00;101004.66;4954543;28;20276;-78
2022/10/21 05:44:16;;;;;;;19.03;15.17;;;;;;;9.39;100.00;100991.03;4957507;28;20204;-77
2022/10/21 05:46:42;;;;;;;20.47;14.83;;;;;;;9.37;100.00;100997.81;4954372;28;20197;-79
2022/10/21 05:49:07;;;;;;;19.53;14.30;;;;;;;9.38;100.00;101005.53;4937444;29;20181;-78
2022/10/21 05:51:33;;;;;;;21.27;14.77;;;;;;;9.37;100.00;101010.59;4953692;28;20228;-78
2022/10/21 05:53:58;;;;;;;18.57;15.00;;;;;;;9.37;100.00;101002.91;4952702;28;20213;-79
2022/10/21 05:56:24;;;;;;;20.20;15.20;;;;;;;9.33;100.00;101008.78;4955631;28;20228;-77
2022/10/21 05:58:50;;;;;;;19.43;15.00;;;;;;;9.39;100.00;101007.25;4930691;28;20200;-76
2022/10/21 06:01:16;;;;;;;21.83;16.20;;;;;;;9.45;100.00;101009.97;4945384;28;20706;-76
2022/10/21 06:03:41;;;;;;;20.27;15.10;;;;;;;9.41;100.00;101013.28;4956446;28;20193;-79
2022/10/21 06:06:07;;;;;;;22.57;15.80;;;;;;;9.45;100.00;101015.06;4956280;28;20201;-79
2022/10/21 06:08:35;;;;;;;20.20;16.47;;;;;;;9.48;100.00;101017.72;4955265;28;20193;-78
2022/10/21 06:11:06;;;;;;;23.60;16.80;;;;;;;9.54;100.00;101017.88;4950836;28;20713;-78
2022/10/21 06:13:32;;;;;;;23.07;16.53;;;;;;;9.61;100.00;101004.44;4952181;29;20204;-78
2022/10/21 06:15:58;;;;;;;23.13;17.20;;;;;;;9.63;100.00;101002.75;4953744;29;20240;-78
2022/10/21 06:18:24;;;;;;;27.03;17.40;;;;;;;9.67;100.00;101003.72;4953974;29;20299;-78
2022/10/21 06:20:50;;;;;;;26.77;17.53;;;;;;;9.72;100.00;101017.50;4948536;28;20224;-79
2022/10/21 06:23:15;;;;;;;23.10;16.93;;;;;;;9.76;100.00;101009.91;4953163;28;20193;-79
2022/10/21 06:25:42;;;;;;;24.87;16.87;;;;;;;9.77;100.00;101023.59;4951207;28;20300;-78
2022/10/21 06:28:08;;;;;;;23.17;16.50;;;;;;;9.80;100.00;101016.84;4953166;28;20216;-78
2022/10/21 06:30:33;;;;;;;24.30;17.00;;;;;;;9.81;100.00;101010.06;4955245;28;20315;-78
2022/10/21 06:32:59;;;;;;;24.93;17.57;;;;;;;9.84;100.00;101017.78;4952799;28;20243;-79
2022/10/21 06:35:24;;;;;;;26.83;17.50;;;;;;;9.84;100.00;101015.22;4955601;28;20224;-76
2022/10/21 06:37:50;;;;;;;24.60;18.03;;;;;;;9.88;100.00;101011.91;4954986;28;20283;-77
2022/10/21 06:40:15;;;;;;;28.50;18.80;;;;;;;9.92;100.00;101016.28;4954614;29;20293;-80
2022/10/21 06:42:40;;;;;;;24.00;17.00;;;;;;;9.96;100.00;101024.06;4949082;29;20272;-80
2022/10/21 06:45:06;;;;;;;23.63;16.57;;;;;;;9.98;100.00;101027.53;4932773;29;20240;-80
2022/10/21 06:47:32;;;;;;;25.87;17.43;;;;;;;10.01;100.00;101024.19;4952766;28;20207;-77
2022/10/21 06:50:01;;;;;;;24.63;17.87;;;;;;;10.03;100.00;101025.97;4954327;28;20216;-79
2022/10/21 06:52:28;;;;;;;24.10;18.40;;;;;;;10.03;100.00;101018.28;4950435;29;20193;-77
2022/10/21 06:54:53;;;;;;;23.80;17.77;;;;;;;10.10;100.00;101007.38;4950347;29;20229;-77
2022/10/21 06:57:19;;;;;;;22.43;18.30;;;;;;;10.15;100.00;101000.72;4951657;28;20228;-77
2022/10/21 06:59:46;;;;;;;23.50;17.43;;;;;;;10.21;100.00;101005.97;4952327;28;20188;-78
2022/10/21 07:02:11;;;;;;;23.33;17.40;;;;;;;10.22;100.00;100989.78;4951926;28;20178;-77
2022/10/21 07:04:36;;;;;;;25.07;17.40;;;;;;;10.25;100.00;101002.66;4951715;28;20212;-80
2022/10/21 07:07:02;;;;;;;24.50;17.53;;;;;;;10.28;100.00;101001.84;4932828;28;20236;-79
2022/10/21 07:09:27;;;;;;;22.33;16.37;;;;;;;10.31;100.00;101001.91;4950846;28;20205;-79
2022/10/21 07:11:53;;;;;;;24.37;18.37;;;;;;;10.34;100.00;100989.19;4950546;28;20240;-79
2022/10/21 07:14:18;;;;;;;24.20;17.80;;;;;;;10.36;100.00;100990.06;4953184;28;20239;-78
2022/10/21 07:16:44;;;;;;;23.50;17.30;;;;;;;10.36;100.00;100985.81;4950796;29;20188;-78
2022/10/21 07:19:10;;;;;;;23.93;18.43;;;;;;;10.38;100.00;100975.63;4951603;28;20193;-79
2022/10/21 07:21:35;;;;;;;28.47;17.87;;;;;;;10.40;100.00;100977.38;4954224;28;20217;-79
2022/10/21 07:24:01;;;;;;;23.20;17.33;;;;;;;10.46;100.00;100971.53;4951247;28;20201;-78
2022/10/21 07:26:29;;;;;;;23.30;18.07;;;;;;;10.51;100.00;100969.94;4948663;28;20263;-78
2022/10/21 07:28:57;;;;;;;25.97;18.27;;;;;;;10.58;100.00;100957.31;4949712;28;20280;-78
2022/10/21 07:31:22;;;;;;;26.47;18.37;;;;;;;10.65;100.00;100959.16;4949169;28;20797;-77
2022/10/21 07:33:48;;;;;;;23.77;18.23;;;;;;;10.73;100.00;100956.78;4947057;28;20277;-79
2022/10/21 07:36:18;;;;;;;26.20;19.07;;;;;;;10.78;100.00;100968.81;4947875;28;20247;-79
2022/10/21 07:38:45;;;;;;;23.53;18.07;;;;;;;10.79;100.00;101014.06;4943069;28;20646;-78
2022/10/21 07:41:41;;;;;;;26.60;18.83;;;;;;;10.91;100.00;100998.97;4951403;28;20657;-78
2022/10/21 07:44:07;;;;;;;23.70;18.03;;;;;;;10.89;100.00;101017.72;4947883;29;20239;-78
2022/10/21 07:46:33;;;;;;;25.40;18.73;;;;;;;10.90;100.00;101014.31;4948439;29;20224;-78
2022/10/21 07:48:59;;;;;;;24.33;18.40;;;;;;;10.94;100.00;101011.84;4946464;29;20196;-79
2022/10/21 07:51:25;;;;;;;22.07;17.70;;;;;;;10.94;100.00;101013.53;4948457;28;20224;-79
2022/10/21 07:53:54;;;;;;;22.57;18.30;;;;;;;10.85;100.00;101010.78;4948469;28;20221;-80
2022/10/21 07:56:25;;;;;;;24.20;18.23;;;;;;;10.90;100.00;101020.31;4944951;28;20911;-79
2022/10/21 07:58:52;;;;;;;23.53;18.37;;;;;;;10.87;100.00;101017.66;4948892;29;20532;-78
2022/10/21 08:01:18;;;;;;;23.57;18.17;;;;;;;10.91;100.00;101019.47;4953170;28;20240;-77
2022/10/21 08:03:45;;;;;;;25.67;18.33;;;;;;;10.90;100.00;101019.44;4953005;28;20220;-78
2022/10/21 08:06:12;;;;;;;22.57;17.37;;;;;;;10.97;100.00;101016.19;4952145;29;20200;-78
2022/10/21 08:08:39;;;;;;;24.30;17.20;;;;;;;10.94;100.00;101018.66;4952793;28;20819;-77
2022/10/21 08:11:08;;;;;;;22.20;17.60;;;;;;;10.93;99.82;101016.94;4953416;28;20220;-76
2022/10/21 08:13:33;;;;;;;23.97;17.83;;;;;;;10.97;100.00;101019.59;4953868;28;20189;-77
2022/10/21 08:15:59;;;;;;;27.13;18.47;;;;;;;11.05;100.00;101010.38;4953575;28;21552;-76
2022/10/21 08:18:25;;;;;;;25.63;18.03;;;;;;;11.02;99.95;101014.56;4953898;28;20193;-77
2022/10/21 08:20:51;;;;;;;24.70;18.57;;;;;;;11.13;99.95;100998.56;4951470;28;20223;-77
2022/10/21 08:23:18;;;;;;;22.53;16.97;;;;;;;11.24;99.50;101009.88;4953866;28;20239;-78
2022/10/21 08:25:47;;;;;;;24.80;17.90;;;;;;;11.26;99.42;101012.47;4948778;28;20243;-77
2022/10/21 08:28:14;;;;;;;22.60;17.23;;;;;;;11.32;99.34;101010.03;4948343;28;20197;-76
2022/10/21 08:30:39;;;;;;;23.10;17.97;;;;;;;11.41;99.16;101023.03;4957667;28;20213;-77
2022/10/21 08:33:04;;;;;;;21.50;17.40;;;;;;;11.56;98.67;101013.91;4949497;29;20213;-77
2022/10/21 08:35:30;;;;;;;20.50;16.60;;;;;;;11.64;98.21;101020.09;4950535;29;20213;-75
2022/10/21 08:37:56;;;;;;;22.13;16.77;;;;;;;11.61;97.88;101020.03;4950435;28;20231;-79
2022/10/21 08:40:22;;;;;;;23.73;17.03;;;;;;;11.61;98.28;101014.88;4951527;28;20201;-78
2022/10/21 08:42:47;;;;;;;23.50;17.17;;;;;;;11.58;98.36;101012.25;4933007;29;20669;-77
2022/10/21 08:45:37;;;;;;;20.97;16.80;;;;;;;11.64;98.26;101020.09;4951850;28;20327;-78
2022/10/21 08:48:07;;;;;;;22.50;17.83;;;;;;;11.66;98.11;101013.25;4932950;29;20283;-75
2022/10/21 08:50:41;;;;;;;21.40;16.73;;;;;;;11.76;97.98;101009.16;4950467;28;20205;-78
2022/10/21 08:53:17;;;;;;;21.37;16.90;;;;;;;11.83;98.08;101000.72;4954303;28;20192;-78
2022/10/21 08:55:43;;;;;;;23.27;16.50;;;;;;;11.88;98.11;100997.41;4951464;29;20192;-80
2022/10/21 08:58:17;;;;;;;19.50;16.77;;;;;;;11.94;97.54;100989.78;4955253;28;20217;-79
2022/10/21 09:00:47;;;;;;;19.83;16.83;;;;;;;12.00;97.72;100989.91;4950983;28;20209;-78
2022/10/21 09:03:28;;;;;;;19.10;16.40;;;;;;;11.96;97.64;100993.28;4953482;29;20197;-78
2022/10/21 09:06:13;;;;;;;22.00;17.53;;;;;;;12.00;97.94;100981.34;4954747;28;20209;-78
2022/10/21 09:08:53;;;;;;;25.10;17.53;;;;;;;12.07;98.39;100985.75;4969209;28;20185;-78
2022/10/21 09:11:53;;;;;;;22.23;17.30;;;;;;;12.12;98.52;100972.13;4952654;29;20217;-78
2022/10/21 09:14:47;;;;;;;22.60;16.67;;;;;;;12.26;98.80;100968.03;4951561;29;20260;-79
2022/10/21 09:17:21;;;;;;;20.20;16.90;;;;;;;12.33;98.72;100975.00;4941400;28;20216;-79
2022/10/21 09:19:52;;;;;;;21.33;18.30;;;;;;;12.37;98.32;100979.34;4952673;29;20197;-78
2022/10/21 09:22:38;;;;;;;21.83;17.73;;;;;;;12.39;98.76;100976.81;4934678;28;20213;-78
2022/10/21 09:25:22;;;;;;;20.33;17.43;;;;;;;12.45;98.40;100971.75;4952915;28;20182;-77
2022/10/21 09:27:48;;;;;;;21.10;16.60;;;;;;;12.51;98.70;100958.97;4953022;29;20188;-78
2022/10/21 09:30:20;;;;;;;22.47;17.70;;;;;;;12.55;98.61;100964.19;4936118;28;20240;-77
2022/10/21 09:32:49;;;;;;;22.60;17.97;;;;;;;12.60;98.99;100959.97;4951065;29;20207;-78
2022/10/21 09:35:19;;;;;;;21.40;17.33;;;;;;;12.74;98.66;100945.59;4953853;28;20276;-78
2022/10/21 09:38:12;;;;;;;21.73;18.53;;;;;;;12.93;98.67;100950.13;4946133;29;20197;-76
2022/10/21 09:40:38;;;;;;;23.63;18.90;;;;;;;13.22;97.71;100947.88;4935851;29;20492;-78
2022/10/21 09:43:05;;;;;;;21.33;17.03;;;;;;;13.31;97.40;100935.09;4953789;28;20659;-77
2022/10/21 09:45:35;;;;;;;22.13;16.90;;;;;;;13.24;97.59;100933.34;4952243;28;20650;-77
2022/10/21 09:48:20;;;;;;;18.80;16.10;;;;;;;13.30;97.18;100940.25;4952651;28;20189;-77
2022/10/21 09:51:09;;;;;;;21.33;16.80;;;;;;;13.25;97.63;100947.91;4952272;29;20228;-77
2022/10/21 09:53:46;;;;;;;20.27;16.83;;;;;;;13.27;97.26;100948.81;4958243;28;20212;-77
2022/10/21 09:56:53;;;;;;;21.60;17.77;;;;;;;13.35;98.18;100951.44;4949958;29;20578;-77
2022/10/21 09:59:21;;;;;;;20.70;16.30;;;;;;;13.39;98.25;100945.50;4948802;29;20717;-76
2022/10/21 10:01:47;;;;;;;21.63;17.70;;;;;;;13.45;97.68;100946.38;4952160;28;20712;-78
2022/10/21 10:04:30;;;;;;;21.27;17.13;;;;;;;13.50;97.84;100944.75;4953446;28;20236;-77
2022/10/21 10:06:59;;;;;;;21.83;18.47;;;;;;;13.55;98.02;100947.34;4946012;29;20212;-77
2022/10/21 10:09:30;;;;;;;27.50;18.27;;;;;;;13.73;96.97;100955.22;4953008;28;20654;-76
2022/10/21 10:12:22;;;;;;;22.27;18.50;;;;;;;13.97;96.81;100946.00;4950807;28;20208;-76
2022/10/21 10:14:49;;;;;;;22.10;16.23;;;;;;;14.82;93.65;100945.63;4950062;28;20204;-77
2022/10/21 10:17:37;;;;;;;18.47;16.47;;;;;;;16.48;87.78;100942.31;4951533;28;20823;-77
2022/10/21 10:20:02;;;;;;;17.50;13.33;;;;;;;18.14;76.79;100936.97;4951426;29;20217;-77
2022/10/21 10:22:29;;;;;;;14.57;12.83;;;;;;;18.31;76.35;100937.66;4952813;28;20200;-78
2022/10/21 10:25:27;;;;;;;16.50;12.97;;;;;;;19.37;71.98;100932.88;4950818;28;20745;-78
2022/10/21 10:27:56;;;;;;;13.43;11.63;;;;;;;18.66;71.69;100933.81;4946128;28;20220;-77
2022/10/21 10:30:23;;;;;;;14.43;11.27;;;;;;;20.60;65.27;100928.13;4947729;28;20323;-78
2022/10/21 10:32:51;;;;;;;11.77;10.57;;;;;;;21.33;62.32;100917.88;4953693;28;20189;-77
2022/10/21 10:35:25;;;;;;;12.27;10.70;;;;;;;21.40;61.55;100914.22;4947182;29;20196;-78
2022/10/21 10:37:52;;;;;;;12.47;10.47;;;;;;;22.12;58.85;100917.66;4951272;28;20177;-78
2022/10/21 10:40:25;;;;;;;12.67;10.87;;;;;;;21.71;58.99;100923.06;4951216;29;20213;-77
2022/10/21 10:43:00;;;;;;;10.53;9.53;;;;;;;22.54;57.98;100928.69;4952339;28;20228;-77
2022/10/21 10:45:26;;;;;;;11.70;10.17;;;;;;;22.07;58.19;100916.91;4951351;29;20196;-77
2022/10/21 10:47:58;;;;;;;11.73;10.63;;;;;;;23.45;55.74;100925.09;4951538;28;20197;-77
2022/10/21 10:50:43;;;;;;;11.30;10.10;;;;;;;26.07;48.79;100901.25;4947047;29;20217;-78
2022/10/21 10:53:29;;;;;;;11.55;9.95;;;;;;;27.45;44.61;100892.19;4947280;28;20224;-76
2022/10/21 10:56:06;;;;;;;10.50;9.60;;;;;;;28.10;42.18;100877.41;4952370;28;20193;-78
2022/10/21 10:58:37;;;;;;;10.43;9.40;;;;;;;29.59;39.17;100864.72;4952722;28;20626;-78
2022/10/21 11:01:11;;;;;;;10.43;9.43;;;;;;;29.52;39.58;100865.97;4952156;28;20264;-77
2022/10/21 11:03:43;;;;;;;12.73;9.90;;;;;;;31.11;36.83;100860.53;4952615;28;20196;-78
2022/10/21 11:06:20;;;;;;;9.65;8.77;;;;;;;30.89;36.78;100860.19;4942767;29;20265;-78
2022/10/21 11:08:58;;;;;;;9.57;8.68;;;;;;;28.42;40.57;100866.06;4952127;28;20204;-78
2022/10/21 11:11:34;;;;;;;11.27;9.60;;;;;;;24.69;48.77;100884.13;4948283;29;20617;-78
2022/10/21 11:14:00;;;;;;;10.65;9.55;;;;;;;23.88;53.01;100875.69;4951486;28;20192;-77
2022/10/21 11:16:38;;;;;;;11.38;9.77;;;;;;;24.36;51.94;100869.59;4952167;28;20666;-77
2022/10/21 11:19:22;;;;;;;11.48;10.00;;;;;;;25.75;49.36;100864.97;4951610;28;20184;-77
2022/10/21 11:22:05;;;;;;;11.05;9.95;;;;;;;25.52;49.62;100860.69;4952160;28;20220;-77